Terminal Aerodrome Forecast
Issued by NWS

Home | Current Version | Previous Version | Text Only | Print | Product List | Glossary On
Versions: 1 2 3 4 5 6 7 8 9 10 11 12
000
FTPA31 PHFO 201738
TAFHLI
TAF
PHLI 201738Z 2018/2118 06011KT P6SM VCSH SCT020 SCT035
      TEMPO 2100/2103 3SM SHRA BR BKN025
     FM210300 05011KT P6SM VCSH SCT015 BKN025=

USA.gov is the U.S. government's official web portal to all federal, state and local government web resources and services.